sensor_id;sensor_type;location;lat;lon;timestamp;P1;durP1;ratioP1;P2;durP2;ratioP2
41253;SDS011;26987;59.928;30.306;2022-12-18T00:00:58;16.23;;;7.22;;
41253;SDS011;26987;59.928;30.306;2022-12-18T00:03:26;12.95;;;6.15;;
41253;SDS011;26987;59.928;30.306;2022-12-18T00:05:54;13.02;;;6.55;;
41253;SDS011;26987;59.928;30.306;2022-12-18T00:08:21;14.18;;;7.28;;
41253;SDS011;26987;59.928;30.306;2022-12-18T00:10:51;10.05;;;5.63;;
41253;SDS011;26987;59.928;30.306;2022-12-18T00:13:18;14.32;;;7.22;;
41253;SDS011;26987;59.928;30.306;2022-12-18T00:15:46;16.10;;;6.65;;
41253;SDS011;26987;59.928;30.306;2022-12-18T00:18:13;15.52;;;6.15;;
41253;SDS011;26987;59.928;30.306;2022-12-18T00:20:41;14.93;;;6.60;;
41253;SDS011;26987;59.928;30.306;2022-12-18T00:23:09;12.05;;;6.32;;
41253;SDS011;26987;59.928;30.306;2022-12-18T00:25:36;16.10;;;7.53;;
41253;SDS011;26987;59.928;30.306;2022-12-18T00:28:06;16.67;;;6.13;;
41253;SDS011;26987;59.928;30.306;2022-12-18T00:30:33;13.73;;;6.03;;
41253;SDS011;26987;59.928;30.306;2022-12-18T00:33:01;14.10;;;5.65;;
41253;SDS011;26987;59.928;30.306;2022-12-18T00:35:29;14.68;;;7.05;;
41253;SDS011;26987;59.928;30.306;2022-12-18T00:37:56;12.55;;;6.70;;
41253;SDS011;26987;59.928;30.306;2022-12-18T00:40:24;11.70;;;5.75;;
41253;SDS011;26987;59.928;30.306;2022-12-18T00:42:53;13.70;;;6.50;;
41253;SDS011;26987;59.928;30.306;2022-12-18T00:45:24;15.63;;;6.60;;
41253;SDS011;26987;59.928;30.306;2022-12-18T00:47:54;21.85;;;6.97;;
41253;SDS011;26987;59.928;30.306;2022-12-18T00:50:22;15.48;;;6.45;;
41253;SDS011;26987;59.928;30.306;2022-12-18T00:52:51;15.10;;;7.10;;
41253;SDS011;26987;59.928;30.306;2022-12-18T00:55:19;16.00;;;7.22;;
41253;SDS011;26987;59.928;30.306;2022-12-18T00:57:46;14.50;;;6.25;;
41253;SDS011;26987;59.928;30.306;2022-12-18T01:00:14;16.75;;;7.40;;
41253;SDS011;26987;59.928;30.306;2022-12-18T01:02:44;13.05;;;6.68;;
41253;SDS011;26987;59.928;30.306;2022-12-18T01:05:12;12.43;;;6.10;;
41253;SDS011;26987;59.928;30.306;2022-12-18T01:07:40;16.20;;;7.30;;
41253;SDS011;26987;59.928;30.306;2022-12-18T01:10:09;12.98;;;6.90;;
41253;SDS011;26987;59.928;30.306;2022-12-18T01:12:38;14.55;;;6.82;;
41253;SDS011;26987;59.928;30.306;2022-12-18T01:15:07;17.17;;;7.38;;
41253;SDS011;26987;59.928;30.306;2022-12-18T01:17:36;13.55;;;7.55;;
41253;SDS011;26987;59.928;30.306;2022-12-18T01:20:06;17.83;;;8.35;;
41253;SDS011;26987;59.928;30.306;2022-12-18T01:22:35;16.88;;;7.60;;
41253;SDS011;26987;59.928;30.306;2022-12-18T01:25:03;17.35;;;7.35;;
41253;SDS011;26987;59.928;30.306;2022-12-18T01:27:33;17.00;;;7.50;;
41253;SDS011;26987;59.928;30.306;2022-12-18T01:30:03;25.83;;;10.15;;
41253;SDS011;26987;59.928;30.306;2022-12-18T01:32:32;18.27;;;9.15;;
41253;SDS011;26987;59.928;30.306;2022-12-18T01:35:01;20.13;;;9.55;;
41253;SDS011;26987;59.928;30.306;2022-12-18T01:37:31;18.15;;;9.13;;
41253;SDS011;26987;59.928;30.306;2022-12-18T01:39:58;19.42;;;8.50;;
41253;SDS011;26987;59.928;30.306;2022-12-18T01:42:26;17.45;;;7.72;;
41253;SDS011;26987;59.928;30.306;2022-12-18T01:47:36;13.27;;;7.50;;
41253;SDS011;26987;59.928;30.306;2022-12-18T01:50:08;17.83;;;6.80;;
41253;SDS011;26987;59.928;30.306;2022-12-18T01:52:39;15.38;;;7.78;;
41253;SDS011;26987;59.928;30.306;2022-12-18T01:55:10;21.63;;;8.23;;
41253;SDS011;26987;59.928;30.306;2022-12-18T01:57:39;20.10;;;8.27;;
41253;SDS011;26987;59.928;30.306;2022-12-18T02:00:10;18.58;;;9.27;;
41253;SDS011;26987;59.928;30.306;2022-12-18T02:02:40;22.08;;;9.63;;
41253;SDS011;26987;59.928;30.306;2022-12-18T02:05:09;20.17;;;10.00;;
41253;SDS011;26987;59.928;30.306;2022-12-18T02:07:42;19.73;;;9.30;;
41253;SDS011;26987;59.928;30.306;2022-12-18T02:10:18;20.83;;;9.38;;
41253;SDS011;26987;59.928;30.306;2022-12-18T02:12:52;21.85;;;9.18;;
41253;SDS011;26987;59.928;30.306;2022-12-18T02:15:26;15.68;;;7.90;;
41253;SDS011;26987;59.928;30.306;2022-12-18T02:18:05;14.52;;;6.97;;
41253;SDS011;26987;59.928;30.306;2022-12-18T02:20:39;16.65;;;7.78;;
41253;SDS011;26987;59.928;30.306;2022-12-18T02:23:16;15.18;;;8.43;;
41253;SDS011;26987;59.928;30.306;2022-12-18T02:26:10;13.77;;;7.53;;
41253;SDS011;26987;59.928;30.306;2022-12-18T02:28:45;18.08;;;7.60;;
41253;SDS011;26987;59.928;30.306;2022-12-18T02:31:19;16.65;;;7.75;;
41253;SDS011;26987;59.928;30.306;2022-12-18T02:33:51;13.32;;;6.20;;
41253;SDS011;26987;59.928;30.306;2022-12-18T02:36:23;18.40;;;8.10;;
41253;SDS011;26987;59.928;30.306;2022-12-18T02:38:55;19.75;;;10.13;;
41253;SDS011;26987;59.928;30.306;2022-12-18T02:41:26;20.85;;;8.65;;
41253;SDS011;26987;59.928;30.306;2022-12-18T02:43:56;20.60;;;10.02;;
41253;SDS011;26987;59.928;30.306;2022-12-18T02:46:27;20.85;;;10.05;;
41253;SDS011;26987;59.928;30.306;2022-12-18T02:49:06;23.50;;;11.10;;
41253;SDS011;26987;59.928;30.306;2022-12-18T02:51:47;24.15;;;11.05;;
41253;SDS011;26987;59.928;30.306;2022-12-18T02:54:26;22.30;;;10.73;;
41253;SDS011;26987;59.928;30.306;2022-12-18T02:57:07;23.65;;;10.15;;
41253;SDS011;26987;59.928;30.306;2022-12-18T02:59:46;23.63;;;11.05;;
41253;SDS011;26987;59.928;30.306;2022-12-18T03:02:24;25.30;;;11.23;;
41253;SDS011;26987;59.928;30.306;2022-12-18T03:04:58;22.73;;;11.50;;
41253;SDS011;26987;59.928;30.306;2022-12-18T03:07:34;26.15;;;12.18;;
41253;SDS011;26987;59.928;30.306;2022-12-18T03:10:09;23.45;;;11.57;;
41253;SDS011;26987;59.928;30.306;2022-12-18T03:12:45;27.30;;;12.30;;
41253;SDS011;26987;59.928;30.306;2022-12-18T03:15:20;24.50;;;11.68;;
41253;SDS011;26987;59.928;30.306;2022-12-18T03:17:59;25.65;;;11.23;;
41253;SDS011;26987;59.928;30.306;2022-12-18T03:20:34;23.08;;;11.98;;
41253;SDS011;26987;59.928;30.306;2022-12-18T03:23:06;25.70;;;12.07;;
41253;SDS011;26987;59.928;30.306;2022-12-18T03:25:38;25.80;;;11.85;;
41253;SDS011;26987;59.928;30.306;2022-12-18T03:28:12;27.55;;;11.63;;
41253;SDS011;26987;59.928;30.306;2022-12-18T03:30:43;28.90;;;12.60;;
41253;SDS011;26987;59.928;30.306;2022-12-18T03:33:15;26.10;;;12.50;;
41253;SDS011;26987;59.928;30.306;2022-12-18T03:35:48;29.05;;;13.57;;
41253;SDS011;26987;59.928;30.306;2022-12-18T03:38:18;36.13;;;14.30;;
41253;SDS011;26987;59.928;30.306;2022-12-18T03:40:52;31.30;;;14.07;;
41253;SDS011;26987;59.928;30.306;2022-12-18T03:43:34;27.92;;;14.35;;
41253;SDS011;26987;59.928;30.306;2022-12-18T03:46:08;29.52;;;13.65;;
41253;SDS011;26987;59.928;30.306;2022-12-18T03:48:43;32.55;;;14.07;;
41253;SDS011;26987;59.928;30.306;2022-12-18T03:51:20;30.60;;;15.07;;
41253;SDS011;26987;59.928;30.306;2022-12-18T03:53:53;32.50;;;13.80;;
41253;SDS011;26987;59.928;30.306;2022-12-18T03:56:30;28.35;;;13.30;;
41253;SDS011;26987;59.928;30.306;2022-12-18T03:59:02;28.75;;;13.70;;
41253;SDS011;26987;59.928;30.306;2022-12-18T04:01:32;26.65;;;13.18;;
41253;SDS011;26987;59.928;30.306;2022-12-18T04:04:04;36.08;;;14.32;;
41253;SDS011;26987;59.928;30.306;2022-12-18T04:06:37;30.50;;;14.48;;
41253;SDS011;26987;59.928;30.306;2022-12-18T04:09:07;25.17;;;12.35;;
41253;SDS011;26987;59.928;30.306;2022-12-18T04:11:39;29.17;;;13.45;;
41253;SDS011;26987;59.928;30.306;2022-12-18T04:14:09;27.63;;;13.13;;
41253;SDS011;26987;59.928;30.306;2022-12-18T04:16:38;26.70;;;13.50;;
41253;SDS011;26987;59.928;30.306;2022-12-18T04:19:09;27.80;;;13.10;;
41253;SDS011;26987;59.928;30.306;2022-12-18T04:21:40;27.30;;;13.80;;
41253;SDS011;26987;59.928;30.306;2022-12-18T04:24:10;27.00;;;13.38;;
41253;SDS011;26987;59.928;30.306;2022-12-18T04:26:43;29.55;;;13.18;;
41253;SDS011;26987;59.928;30.306;2022-12-18T04:29:23;28.73;;;13.70;;
41253;SDS011;26987;59.928;30.306;2022-12-18T04:31:51;30.75;;;13.15;;
41253;SDS011;26987;59.928;30.306;2022-12-18T04:34:20;30.17;;;12.95;;
41253;SDS011;26987;59.928;30.306;2022-12-18T04:36:51;26.90;;;14.13;;
41253;SDS011;26987;59.928;30.306;2022-12-18T04:39:21;28.80;;;14.23;;
41253;SDS011;26987;59.928;30.306;2022-12-18T04:41:51;26.90;;;13.73;;
41253;SDS011;26987;59.928;30.306;2022-12-18T04:44:18;27.92;;;14.43;;
41253;SDS011;26987;59.928;30.306;2022-12-18T04:46:47;26.60;;;14.07;;
41253;SDS011;26987;59.928;30.306;2022-12-18T04:49:15;26.20;;;14.23;;
41253;SDS011;26987;59.928;30.306;2022-12-18T04:51:43;30.80;;;15.63;;
41253;SDS011;26987;59.928;30.306;2022-12-18T04:54:10;29.23;;;14.75;;
41253;SDS011;26987;59.928;30.306;2022-12-18T04:56:38;32.42;;;15.57;;
41253;SDS011;26987;59.928;30.306;2022-12-18T04:59:06;30.58;;;13.95;;
41253;SDS011;26987;59.928;30.306;2022-12-18T05:01:34;30.33;;;15.07;;
41253;SDS011;26987;59.928;30.306;2022-12-18T05:04:04;31.35;;;14.05;;
41253;SDS011;26987;59.928;30.306;2022-12-18T05:06:31;28.02;;;14.45;;
41253;SDS011;26987;59.928;30.306;2022-12-18T05:08:59;34.33;;;16.10;;
41253;SDS011;26987;59.928;30.306;2022-12-18T05:11:27;30.70;;;15.85;;
41253;SDS011;26987;59.928;30.306;2022-12-18T05:13:54;34.58;;;16.50;;
41253;SDS011;26987;59.928;30.306;2022-12-18T05:16:24;30.10;;;15.57;;
41253;SDS011;26987;59.928;30.306;2022-12-18T05:18:51;27.17;;;14.32;;
41253;SDS011;26987;59.928;30.306;2022-12-18T05:21:20;29.70;;;16.13;;
41253;SDS011;26987;59.928;30.306;2022-12-18T05:23:48;31.08;;;14.80;;
41253;SDS011;26987;59.928;30.306;2022-12-18T05:26:16;33.53;;;15.27;;
41253;SDS011;26987;59.928;30.306;2022-12-18T05:28:45;30.98;;;14.90;;
41253;SDS011;26987;59.928;30.306;2022-12-18T05:31:13;26.85;;;12.68;;
41253;SDS011;26987;59.928;30.306;2022-12-18T05:33:41;27.40;;;13.00;;
41253;SDS011;26987;59.928;30.306;2022-12-18T05:36:09;30.73;;;13.30;;
41253;SDS011;26987;59.928;30.306;2022-12-18T05:38:39;26.75;;;13.73;;
41253;SDS011;26987;59.928;30.306;2022-12-18T05:41:07;27.75;;;13.13;;
41253;SDS011;26987;59.928;30.306;2022-12-18T05:43:36;25.35;;;12.18;;
41253;SDS011;26987;59.928;30.306;2022-12-18T05:46:05;24.60;;;12.30;;
41253;SDS011;26987;59.928;30.306;2022-12-18T05:48:33;23.55;;;11.63;;
41253;SDS011;26987;59.928;30.306;2022-12-18T05:51:04;25.40;;;12.57;;
41253;SDS011;26987;59.928;30.306;2022-12-18T05:53:34;27.83;;;12.55;;
41253;SDS011;26987;59.928;30.306;2022-12-18T05:56:05;25.00;;;12.43;;
41253;SDS011;26987;59.928;30.306;2022-12-18T05:58:34;29.17;;;12.25;;
41253;SDS011;26987;59.928;30.306;2022-12-18T06:01:06;26.35;;;12.73;;
41253;SDS011;26987;59.928;30.306;2022-12-18T06:03:36;26.42;;;12.23;;
41253;SDS011;26987;59.928;30.306;2022-12-18T06:06:11;29.95;;;12.95;;
41253;SDS011;26987;59.928;30.306;2022-12-18T06:08:40;24.77;;;12.82;;
41253;SDS011;26987;59.928;30.306;2022-12-18T06:11:09;23.48;;;11.13;;
41253;SDS011;26987;59.928;30.306;2022-12-18T06:13:37;22.83;;;12.05;;
41253;SDS011;26987;59.928;30.306;2022-12-18T06:16:05;25.10;;;11.63;;
41253;SDS011;26987;59.928;30.306;2022-12-18T06:18:33;24.35;;;12.15;;
41253;SDS011;26987;59.928;30.306;2022-12-18T06:21:04;22.42;;;9.88;;
41253;SDS011;26987;59.928;30.306;2022-12-18T06:23:34;23.00;;;10.52;;
41253;SDS011;26987;59.928;30.306;2022-12-18T06:26:03;22.63;;;9.98;;
41253;SDS011;26987;59.928;30.306;2022-12-18T06:28:33;21.38;;;10.60;;
41253;SDS011;26987;59.928;30.306;2022-12-18T06:31:02;20.40;;;9.68;;
41253;SDS011;26987;59.928;30.306;2022-12-18T06:33:29;22.92;;;11.20;;
41253;SDS011;26987;59.928;30.306;2022-12-18T06:35:59;23.70;;;11.27;;
41253;SDS011;26987;59.928;30.306;2022-12-18T06:38:27;24.20;;;11.05;;
41253;SDS011;26987;59.928;30.306;2022-12-18T06:40:55;22.05;;;11.25;;
41253;SDS011;26987;59.928;30.306;2022-12-18T06:43:23;22.35;;;10.48;;
41253;SDS011;26987;59.928;30.306;2022-12-18T06:45:57;26.42;;;10.95;;
41253;SDS011;26987;59.928;30.306;2022-12-18T06:48:27;29.02;;;12.10;;
41253;SDS011;26987;59.928;30.306;2022-12-18T06:50:55;25.02;;;12.27;;
41253;SDS011;26987;59.928;30.306;2022-12-18T06:53:23;38.85;;;14.48;;
41253;SDS011;26987;59.928;30.306;2022-12-18T06:55:50;32.70;;;14.45;;
41253;SDS011;26987;59.928;30.306;2022-12-18T06:58:18;27.93;;;13.33;;
41253;SDS011;26987;59.928;30.306;2022-12-18T07:00:46;32.58;;;13.55;;
41253;SDS011;26987;59.928;30.306;2022-12-18T07:03:15;31.23;;;13.20;;
41253;SDS011;26987;59.928;30.306;2022-12-18T07:05:42;31.63;;;13.25;;
41253;SDS011;26987;59.928;30.306;2022-12-18T07:08:10;34.60;;;14.02;;
41253;SDS011;26987;59.928;30.306;2022-12-18T07:10:40;28.00;;;12.50;;
41253;SDS011;26987;59.928;30.306;2022-12-18T07:13:09;33.60;;;14.40;;
41253;SDS011;26987;59.928;30.306;2022-12-18T07:15:37;31.88;;;14.00;;
41253;SDS011;26987;59.928;30.306;2022-12-18T07:18:05;32.42;;;13.88;;
41253;SDS011;26987;59.928;30.306;2022-12-18T07:20:33;31.85;;;13.20;;
41253;SDS011;26987;59.928;30.306;2022-12-18T07:23:01;31.10;;;13.77;;
41253;SDS011;26987;59.928;30.306;2022-12-18T07:25:29;31.60;;;14.73;;
41253;SDS011;26987;59.928;30.306;2022-12-18T07:27:57;29.17;;;13.23;;
41253;SDS011;26987;59.928;30.306;2022-12-18T07:30:27;33.55;;;13.73;;
41253;SDS011;26987;59.928;30.306;2022-12-18T07:32:55;26.07;;;12.20;;
41253;SDS011;26987;59.928;30.306;2022-12-18T07:35:23;29.80;;;12.93;;
41253;SDS011;26987;59.928;30.306;2022-12-18T07:37:52;22.88;;;10.85;;
41253;SDS011;26987;59.928;30.306;2022-12-18T07:40:20;29.67;;;12.15;;
41253;SDS011;26987;59.928;30.306;2022-12-18T07:42:47;25.27;;;11.87;;
41253;SDS011;26987;59.928;30.306;2022-12-18T07:45:15;33.72;;;12.77;;
41253;SDS011;26987;59.928;30.306;2022-12-18T07:47:43;30.27;;;13.97;;
41253;SDS011;26987;59.928;30.306;2022-12-18T07:50:10;39.03;;;14.77;;
41253;SDS011;26987;59.928;30.306;2022-12-18T07:52:39;34.83;;;13.40;;
41253;SDS011;26987;59.928;30.306;2022-12-18T07:55:08;33.77;;;14.33;;
41253;SDS011;26987;59.928;30.306;2022-12-18T07:57:36;34.67;;;13.10;;
41253;SDS011;26987;59.928;30.306;2022-12-18T08:00:04;33.28;;;15.25;;
41253;SDS011;26987;59.928;30.306;2022-12-18T08:02:38;32.13;;;14.85;;
41253;SDS011;26987;59.928;30.306;2022-12-18T08:05:06;43.53;;;16.27;;
41253;SDS011;26987;59.928;30.306;2022-12-18T08:07:34;36.60;;;17.23;;
41253;SDS011;26987;59.928;30.306;2022-12-18T08:10:02;46.30;;;17.37;;
41253;SDS011;26987;59.928;30.306;2022-12-18T08:12:31;40.47;;;17.50;;
41253;SDS011;26987;59.928;30.306;2022-12-18T08:14:59;39.50;;;18.50;;
41253;SDS011;26987;59.928;30.306;2022-12-18T08:17:26;43.17;;;19.88;;
41253;SDS011;26987;59.928;30.306;2022-12-18T08:19:54;42.28;;;19.38;;
41253;SDS011;26987;59.928;30.306;2022-12-18T08:22:22;44.30;;;19.30;;
41253;SDS011;26987;59.928;30.306;2022-12-18T08:24:50;39.17;;;17.65;;
41253;SDS011;26987;59.928;30.306;2022-12-18T08:27:17;41.05;;;18.65;;
41253;SDS011;26987;59.928;30.306;2022-12-18T08:29:46;43.90;;;18.50;;
41253;SDS011;26987;59.928;30.306;2022-12-18T08:32:14;36.78;;;17.38;;
41253;SDS011;26987;59.928;30.306;2022-12-18T08:34:42;44.63;;;17.70;;
41253;SDS011;26987;59.928;30.306;2022-12-18T08:37:09;41.35;;;17.92;;
41253;SDS011;26987;59.928;30.306;2022-12-18T08:39:37;37.20;;;16.35;;
41253;SDS011;26987;59.928;30.306;2022-12-18T08:42:05;42.65;;;16.50;;
41253;SDS011;26987;59.928;30.306;2022-12-18T08:44:51;31.52;;;13.38;;
41253;SDS011;26987;59.928;30.306;2022-12-18T08:47:19;36.85;;;16.05;;
41253;SDS011;26987;59.928;30.306;2022-12-18T08:49:46;32.13;;;13.82;;
41253;SDS011;26987;59.928;30.306;2022-12-18T08:52:14;42.05;;;16.13;;
41253;SDS011;26987;59.928;30.306;2022-12-18T08:54:42;34.70;;;14.20;;
41253;SDS011;26987;59.928;30.306;2022-12-18T08:57:09;30.77;;;13.73;;
41253;SDS011;26987;59.928;30.306;2022-12-18T08:59:37;31.52;;;13.73;;
41253;SDS011;26987;59.928;30.306;2022-12-18T09:02:07;26.13;;;11.48;;
41253;SDS011;26987;59.928;30.306;2022-12-18T09:04:36;27.42;;;11.75;;
41253;SDS011;26987;59.928;30.306;2022-12-18T09:07:05;29.40;;;10.90;;
41253;SDS011;26987;59.928;30.306;2022-12-18T09:09:33;25.70;;;11.32;;
41253;SDS011;26987;59.928;30.306;2022-12-18T09:12:00;32.20;;;12.70;;
41253;SDS011;26987;59.928;30.306;2022-12-18T09:14:28;29.80;;;11.70;;
41253;SDS011;26987;59.928;30.306;2022-12-18T09:16:56;26.08;;;11.27;;
41253;SDS011;26987;59.928;30.306;2022-12-18T09:19:25;24.02;;;11.07;;
41253;SDS011;26987;59.928;30.306;2022-12-18T09:21:53;21.25;;;10.27;;
41253;SDS011;26987;59.928;30.306;2022-12-18T09:24:20;20.80;;;9.95;;
41253;SDS011;26987;59.928;30.306;2022-12-18T09:26:52;25.85;;;9.68;;
41253;SDS011;26987;59.928;30.306;2022-12-18T09:29:20;21.80;;;9.77;;
41253;SDS011;26987;59.928;30.306;2022-12-18T09:31:48;21.67;;;9.85;;
41253;SDS011;26987;59.928;30.306;2022-12-18T09:34:16;25.48;;;9.75;;
41253;SDS011;26987;59.928;30.306;2022-12-18T09:36:45;16.08;;;8.02;;
41253;SDS011;26987;59.928;30.306;2022-12-18T09:39:13;20.85;;;9.55;;
41253;SDS011;26987;59.928;30.306;2022-12-18T09:41:43;21.85;;;8.95;;
41253;SDS011;26987;59.928;30.306;2022-12-18T09:44:18;17.13;;;7.47;;
41253;SDS011;26987;59.928;30.306;2022-12-18T09:46:52;19.10;;;8.75;;
41253;SDS011;26987;59.928;30.306;2022-12-18T09:49:29;16.95;;;8.07;;
41253;SDS011;26987;59.928;30.306;2022-12-18T09:52:02;18.38;;;7.65;;
41253;SDS011;26987;59.928;30.306;2022-12-18T09:54:33;18.20;;;7.90;;
41253;SDS011;26987;59.928;30.306;2022-12-18T09:57:10;18.92;;;7.55;;
41253;SDS011;26987;59.928;30.306;2022-12-18T09:59:40;19.05;;;7.28;;
41253;SDS011;26987;59.928;30.306;2022-12-18T10:02:15;18.83;;;8.02;;
41253;SDS011;26987;59.928;30.306;2022-12-18T10:04:44;18.52;;;7.53;;
41253;SDS011;26987;59.928;30.306;2022-12-18T10:07:20;18.40;;;7.93;;
41253;SDS011;26987;59.928;30.306;2022-12-18T10:09:57;19.52;;;7.45;;
41253;SDS011;26987;59.928;30.306;2022-12-18T10:12:32;18.02;;;7.45;;
41253;SDS011;26987;59.928;30.306;2022-12-18T10:15:10;17.40;;;8.00;;
41253;SDS011;26987;59.928;30.306;2022-12-18T10:17:50;19.73;;;7.50;;
41253;SDS011;26987;59.928;30.306;2022-12-18T10:20:24;16.38;;;7.18;;
41253;SDS011;26987;59.928;30.306;2022-12-18T10:22:59;12.52;;;5.90;;
41253;SDS011;26987;59.928;30.306;2022-12-18T10:25:31;20.20;;;8.25;;
41253;SDS011;26987;59.928;30.306;2022-12-18T10:28:07;16.20;;;7.10;;
41253;SDS011;26987;59.928;30.306;2022-12-18T10:30:39;15.13;;;7.15;;
41253;SDS011;26987;59.928;30.306;2022-12-18T10:33:09;17.05;;;7.45;;
41253;SDS011;26987;59.928;30.306;2022-12-18T10:35:41;17.30;;;7.45;;
41253;SDS011;26987;59.928;30.306;2022-12-18T10:40:55;17.25;;;7.90;;
41253;SDS011;26987;59.928;30.306;2022-12-18T10:43:25;16.98;;;7.45;;
41253;SDS011;26987;59.928;30.306;2022-12-18T10:46:05;20.98;;;8.80;;
41253;SDS011;26987;59.928;30.306;2022-12-18T10:48:47;19.80;;;8.23;;
41253;SDS011;26987;59.928;30.306;2022-12-18T10:51:23;17.90;;;8.10;;
41253;SDS011;26987;59.928;30.306;2022-12-18T10:53:54;16.38;;;8.18;;
41253;SDS011;26987;59.928;30.306;2022-12-18T10:56:24;19.02;;;7.38;;
41253;SDS011;26987;59.928;30.306;2022-12-18T10:58:59;18.65;;;8.10;;
41253;SDS011;26987;59.928;30.306;2022-12-18T11:01:28;15.50;;;7.05;;
41253;SDS011;26987;59.928;30.306;2022-12-18T11:04:13;19.42;;;7.55;;
41253;SDS011;26987;59.928;30.306;2022-12-18T11:06:55;16.10;;;6.93;;
41253;SDS011;26987;59.928;30.306;2022-12-18T11:09:26;15.93;;;7.82;;
41253;SDS011;26987;59.928;30.306;2022-12-18T11:11:55;16.58;;;7.38;;
41253;SDS011;26987;59.928;30.306;2022-12-18T11:14:25;18.50;;;7.57;;
41253;SDS011;26987;59.928;30.306;2022-12-18T11:16:54;15.93;;;7.45;;
41253;SDS011;26987;59.928;30.306;2022-12-18T11:19:28;18.52;;;6.88;;
41253;SDS011;26987;59.928;30.306;2022-12-18T11:22:00;18.63;;;7.88;;
41253;SDS011;26987;59.928;30.306;2022-12-18T11:24:32;17.52;;;7.70;;
41253;SDS011;26987;59.928;30.306;2022-12-18T11:27:03;23.15;;;8.27;;
41253;SDS011;26987;59.928;30.306;2022-12-18T11:29:33;20.95;;;8.93;;
41253;SDS011;26987;59.928;30.306;2022-12-18T11:32:24;18.35;;;7.90;;
41253;SDS011;26987;59.928;30.306;2022-12-18T11:35:04;20.30;;;8.95;;
41253;SDS011;26987;59.928;30.306;2022-12-18T11:37:43;24.02;;;9.05;;
41253;SDS011;26987;59.928;30.306;2022-12-18T11:40:17;20.70;;;8.48;;
41253;SDS011;26987;59.928;30.306;2022-12-18T11:42:50;16.02;;;6.93;;
41253;SDS011;26987;59.928;30.306;2022-12-18T11:45:26;29.98;;;9.40;;
41253;SDS011;26987;59.928;30.306;2022-12-18T11:47:56;23.70;;;9.18;;
41253;SDS011;26987;59.928;30.306;2022-12-18T11:50:29;20.67;;;9.68;;
41253;SDS011;26987;59.928;30.306;2022-12-18T11:53:09;22.50;;;9.10;;
41253;SDS011;26987;59.928;30.306;2022-12-18T11:55:41;28.02;;;9.63;;
41253;SDS011;26987;59.928;30.306;2022-12-18T11:58:20;19.33;;;10.15;;
41253;SDS011;26987;59.928;30.306;2022-12-18T12:01:00;23.23;;;9.13;;
41253;SDS011;26987;59.928;30.306;2022-12-18T12:03:43;18.83;;;9.07;;
41253;SDS011;26987;59.928;30.306;2022-12-18T12:06:21;24.13;;;10.30;;
41253;SDS011;26987;59.928;30.306;2022-12-18T12:09:00;29.75;;;10.20;;
41253;SDS011;26987;59.928;30.306;2022-12-18T12:11:39;26.77;;;9.85;;
41253;SDS011;26987;59.928;30.306;2022-12-18T12:14:24;23.30;;;9.38;;
41253;SDS011;26987;59.928;30.306;2022-12-18T12:17:03;23.17;;;9.05;;
41253;SDS011;26987;59.928;30.306;2022-12-18T12:19:39;22.88;;;9.02;;
41253;SDS011;26987;59.928;30.306;2022-12-18T12:22:17;22.13;;;9.30;;
41253;SDS011;26987;59.928;30.306;2022-12-18T12:24:55;21.85;;;8.90;;
41253;SDS011;26987;59.928;30.306;2022-12-18T12:27:39;28.08;;;11.02;;
41253;SDS011;26987;59.928;30.306;2022-12-18T12:30:16;30.58;;;11.13;;
41253;SDS011;26987;59.928;30.306;2022-12-18T12:32:53;26.05;;;11.00;;
41253;SDS011;26987;59.928;30.306;2022-12-18T12:35:36;21.50;;;9.65;;
41253;SDS011;26987;59.928;30.306;2022-12-18T12:38:13;27.35;;;10.23;;
41253;SDS011;26987;59.928;30.306;2022-12-18T12:40:49;28.90;;;10.65;;
41253;SDS011;26987;59.928;30.306;2022-12-18T12:43:23;26.80;;;10.95;;
41253;SDS011;26987;59.928;30.306;2022-12-18T12:45:55;26.15;;;10.43;;
41253;SDS011;26987;59.928;30.306;2022-12-18T12:48:32;31.73;;;12.75;;
41253;SDS011;26987;59.928;30.306;2022-12-18T12:51:04;25.02;;;11.23;;
41253;SDS011;26987;59.928;30.306;2022-12-18T12:53:38;26.52;;;10.63;;
41253;SDS011;26987;59.928;30.306;2022-12-18T12:56:08;26.13;;;11.05;;
41253;SDS011;26987;59.928;30.306;2022-12-18T12:58:41;26.58;;;11.82;;
41253;SDS011;26987;59.928;30.306;2022-12-18T13:01:19;27.27;;;11.52;;
41253;SDS011;26987;59.928;30.306;2022-12-18T13:03:58;26.77;;;11.52;;
41253;SDS011;26987;59.928;30.306;2022-12-18T13:06:37;29.05;;;11.30;;
41253;SDS011;26987;59.928;30.306;2022-12-18T13:09:11;31.85;;;13.32;;
41253;SDS011;26987;59.928;30.306;2022-12-18T13:11:40;28.48;;;11.40;;
41253;SDS011;26987;59.928;30.306;2022-12-18T13:14:31;32.17;;;10.52;;
41253;SDS011;26987;59.928;30.306;2022-12-18T13:17:14;29.38;;;10.95;;
41253;SDS011;26987;59.928;30.306;2022-12-18T13:20:03;26.83;;;9.95;;
41253;SDS011;26987;59.928;30.306;2022-12-18T13:22:36;28.20;;;10.82;;
41253;SDS011;26987;59.928;30.306;2022-12-18T13:28:10;21.13;;;9.45;;
41253;SDS011;26987;59.928;30.306;2022-12-18T13:30:51;23.92;;;9.70;;
41253;SDS011;26987;59.928;30.306;2022-12-18T13:36:26;23.00;;;9.30;;
41253;SDS011;26987;59.928;30.306;2022-12-18T13:39:10;27.42;;;11.02;;
41253;SDS011;26987;59.928;30.306;2022-12-18T13:45:39;26.88;;;9.98;;
41253;SDS011;26987;59.928;30.306;2022-12-18T13:48:22;25.38;;;10.13;;
41253;SDS011;26987;59.928;30.306;2022-12-18T13:50:52;23.60;;;10.77;;
41253;SDS011;26987;59.928;30.306;2022-12-18T13:53:26;29.40;;;11.53;;
41253;SDS011;26987;59.928;30.306;2022-12-18T13:55:58;28.20;;;10.80;;
41253;SDS011;26987;59.928;30.306;2022-12-18T13:58:26;22.67;;;10.52;;
41253;SDS011;26987;59.928;30.306;2022-12-18T14:00:53;22.77;;;9.52;;
41253;SDS011;26987;59.928;30.306;2022-12-18T14:03:24;24.42;;;9.07;;
41253;SDS011;26987;59.928;30.306;2022-12-18T14:05:54;23.83;;;9.27;;
41253;SDS011;26987;59.928;30.306;2022-12-18T14:08:25;19.65;;;8.40;;
41253;SDS011;26987;59.928;30.306;2022-12-18T14:11:01;21.45;;;8.05;;
41253;SDS011;26987;59.928;30.306;2022-12-18T14:13:33;23.17;;;9.52;;
41253;SDS011;26987;59.928;30.306;2022-12-18T14:16:05;19.80;;;8.90;;
41253;SDS011;26987;59.928;30.306;2022-12-18T14:18:38;21.13;;;9.32;;
41253;SDS011;26987;59.928;30.306;2022-12-18T14:21:17;25.00;;;8.85;;
41253;SDS011;26987;59.928;30.306;2022-12-18T14:23:47;20.70;;;8.73;;
41253;SDS011;26987;59.928;30.306;2022-12-18T14:26:23;21.10;;;8.55;;
41253;SDS011;26987;59.928;30.306;2022-12-18T14:28:54;22.73;;;9.07;;
41253;SDS011;26987;59.928;30.306;2022-12-18T14:31:23;20.95;;;7.63;;
41253;SDS011;26987;59.928;30.306;2022-12-18T14:33:54;18.98;;;9.15;;
41253;SDS011;26987;59.928;30.306;2022-12-18T14:36:22;23.33;;;8.20;;
41253;SDS011;26987;59.928;30.306;2022-12-18T14:38:51;24.13;;;9.35;;
41253;SDS011;26987;59.928;30.306;2022-12-18T14:41:20;18.02;;;9.07;;
41253;SDS011;26987;59.928;30.306;2022-12-18T14:43:50;22.35;;;9.57;;
41253;SDS011;26987;59.928;30.306;2022-12-18T14:46:25;20.70;;;9.57;;
41253;SDS011;26987;59.928;30.306;2022-12-18T14:48:58;21.02;;;8.75;;
41253;SDS011;26987;59.928;30.306;2022-12-18T14:51:27;21.27;;;8.13;;
41253;SDS011;26987;59.928;30.306;2022-12-18T14:53:57;23.25;;;8.65;;